sensor_id;sensor_type;location;lat;lon;timestamp;pressure;altitude;pressure_sealevel;temperature;humidity
6128;BME280;7073;42.672;23.256;2022-09-03T00:00:06;94368.34;;;18.62;100.00
6128;BME280;7073;42.672;23.256;2022-09-03T00:02:38;94364.88;;;18.92;100.00
6128;BME280;7073;42.672;23.256;2022-09-03T00:05:14;94363.31;;;18.61;100.00
6128;BME280;7073;42.672;23.256;2022-09-03T00:07:48;94364.13;;;18.51;100.00
6128;BME280;7073;42.672;23.256;2022-09-03T00:10:23;94374.69;;;18.56;100.00
6128;BME280;7073;42.672;23.256;2022-09-03T00:12:53;94370.19;;;18.67;100.00
6128;BME280;7073;42.672;23.256;2022-09-03T00:15:23;94373.09;;;18.65;100.00
6128;BME280;7073;42.672;23.256;2022-09-03T00:17:53;94373.09;;;18.60;100.00
6128;BME280;7073;42.672;23.256;2022-09-03T00:20:25;94376.50;;;18.81;100.00
6128;BME280;7073;42.672;23.256;2022-09-03T00:22:55;94369.13;;;18.98;100.00
6128;BME280;7073;42.672;23.256;2022-09-03T00:25:27;94356.97;;;18.82;100.00
6128;BME280;7073;42.672;23.256;2022-09-03T00:27:56;94351.72;;;18.77;100.00
6128;BME280;7073;42.672;23.256;2022-09-03T00:30:24;94355.41;;;18.56;100.00
6128;BME280;7073;42.672;23.256;2022-09-03T00:32:56;94358.59;;;18.78;100.00
6128;BME280;7073;42.672;23.256;2022-09-03T00:35:27;94358.81;;;18.86;100.00
6128;BME280;7073;42.672;23.256;2022-09-03T00:37:56;94349.59;;;18.69;100.00
6128;BME280;7073;42.672;23.256;2022-09-03T00:40:51;94356.72;;;18.78;100.00
6128;BME280;7073;42.672;23.256;2022-09-03T00:43:36;94357.25;;;18.75;100.00
6128;BME280;7073;42.672;23.256;2022-09-03T00:46:16;94356.22;;;18.66;100.00
6128;BME280;7073;42.672;23.256;2022-09-03T00:49:01;94358.56;;;18.53;100.00
6128;BME280;7073;42.672;23.256;2022-09-03T00:51:37;94357.22;;;18.45;100.00
6128;BME280;7073;42.672;23.256;2022-09-03T00:54:11;94373.59;;;18.92;100.00
6128;BME280;7073;42.672;23.256;2022-09-03T00:56:47;94367.28;;;18.63;100.00
6128;BME280;7073;42.672;23.256;2022-09-03T00:59:30;94369.13;;;18.73;100.00
6128;BME280;7073;42.672;23.256;2022-09-03T01:02:05;94359.88;;;18.45;100.00
6128;BME280;7073;42.672;23.256;2022-09-03T01:04:40;94363.31;;;18.41;100.00
6128;BME280;7073;42.672;23.256;2022-09-03T01:07:18;94357.22;;;18.35;100.00
6128;BME280;7073;42.672;23.256;2022-09-03T01:09:52;94361.22;;;18.63;100.00
6128;BME280;7073;42.672;23.256;2022-09-03T01:12:32;94361.44;;;18.41;100.00
6128;BME280;7073;42.672;23.256;2022-09-03T01:15:08;94365.69;;;18.57;100.00
6128;BME280;7073;42.672;23.256;2022-09-03T01:17:47;94363.03;;;18.42;100.00
6128;BME280;7073;42.672;23.256;2022-09-03T01:20:43;94363.59;;;18.59;100.00
6128;BME280;7073;42.672;23.256;2022-09-03T01:26:45;94375.47;;;18.57;100.00
6128;BME280;7073;42.672;23.256;2022-09-03T01:29:23;94385.16;;;18.31;100.00
6128;BME280;7073;42.672;23.256;2022-09-03T01:32:01;94386.44;;;18.03;100.00
6128;BME280;7073;42.672;23.256;2022-09-03T01:34:40;94395.47;;;18.43;100.00
6128;BME280;7073;42.672;23.256;2022-09-03T01:37:15;94395.75;;;18.46;100.00
6128;BME280;7073;42.672;23.256;2022-09-03T01:39:54;94405.31;;;18.72;100.00
6128;BME280;7073;42.672;23.256;2022-09-03T01:42:35;94404.41;;;18.21;100.00
6128;BME280;7073;42.672;23.256;2022-09-03T01:45:37;94400.19;;;18.20;100.00
6128;BME280;7073;42.672;23.256;2022-09-03T01:48:29;94387.59;;;18.58;100.00
6128;BME280;7073;42.672;23.256;2022-09-03T01:51:05;94379.97;;;18.56;100.00
6128;BME280;7073;42.672;23.256;2022-09-03T01:54:06;94382.81;;;18.24;100.00
6128;BME280;7073;42.672;23.256;2022-09-03T01:56:46;94389.44;;;18.57;100.00
6128;BME280;7073;42.672;23.256;2022-09-03T01:59:21;94384.16;;;18.52;100.00
6128;BME280;7073;42.672;23.256;2022-09-03T02:01:55;94374.63;;;18.41;100.00
6128;BME280;7073;42.672;23.256;2022-09-03T02:04:26;94385.94;;;18.16;100.00
6128;BME280;7073;42.672;23.256;2022-09-03T02:06:55;94372.78;;;18.42;100.00
6128;BME280;7073;42.672;23.256;2022-09-03T02:09:24;94376.50;;;18.36;100.00
6128;BME280;7073;42.672;23.256;2022-09-03T02:11:54;94388.91;;;18.55;100.00
6128;BME280;7073;42.672;23.256;2022-09-03T02:14:24;94393.16;;;18.71;100.00
6128;BME280;7073;42.672;23.256;2022-09-03T02:16:54;94394.72;;;18.47;100.00
6128;BME280;7073;42.672;23.256;2022-09-03T02:19:22;94389.97;;;18.79;100.00
6128;BME280;7073;42.672;23.256;2022-09-03T02:21:52;94386.81;;;18.52;100.00
6128;BME280;7073;42.672;23.256;2022-09-03T02:24:21;94380.75;;;18.62;100.00
6128;BME280;7073;42.672;23.256;2022-09-03T02:26:48;94383.91;;;18.59;100.00
6128;BME280;7073;42.672;23.256;2022-09-03T02:29:15;94385.25;;;18.56;100.00
6128;BME280;7073;42.672;23.256;2022-09-03T02:31:43;94395.00;;;18.56;100.00
6128;BME280;7073;42.672;23.256;2022-09-03T02:34:11;94399.47;;;18.70;100.00
6128;BME280;7073;42.672;23.256;2022-09-03T02:36:41;94398.97;;;18.99;100.00
6128;BME280;7073;42.672;23.256;2022-09-03T02:39:08;94397.38;;;18.67;100.00
6128;BME280;7073;42.672;23.256;2022-09-03T02:41:34;94401.84;;;19.17;100.00
6128;BME280;7073;42.672;23.256;2022-09-03T02:44:04;94396.31;;;18.83;100.00
6128;BME280;7073;42.672;23.256;2022-09-03T02:46:35;94390.78;;;18.80;100.00
6128;BME280;7073;42.672;23.256;2022-09-03T02:49:04;94410.03;;;18.65;100.00
6128;BME280;7073;42.672;23.256;2022-09-03T02:51:34;94414.25;;;18.81;100.00
6128;BME280;7073;42.672;23.256;2022-09-03T02:54:00;94401.31;;;18.50;100.00
6128;BME280;7073;42.672;23.256;2022-09-03T02:56:27;94412.66;;;18.55;100.00
6128;BME280;7073;42.672;23.256;2022-09-03T02:58:54;94410.31;;;18.49;100.00
6128;BME280;7073;42.672;23.256;2022-09-03T03:01:21;94405.31;;;18.77;100.00
6128;BME280;7073;42.672;23.256;2022-09-03T03:03:48;94404.00;;;18.75;100.00
6128;BME280;7073;42.672;23.256;2022-09-03T03:06:15;94408.19;;;18.61;100.00
6128;BME280;7073;42.672;23.256;2022-09-03T03:08:47;94404.50;;;18.92;100.00
6128;BME280;7073;42.672;23.256;2022-09-03T03:11:14;94397.38;;;18.72;100.00
6128;BME280;7073;42.672;23.256;2022-09-03T03:13:43;94395.78;;;18.76;100.00
6128;BME280;7073;42.672;23.256;2022-09-03T03:16:13;94393.94;;;18.62;100.00
6128;BME280;7073;42.672;23.256;2022-09-03T03:18:40;94399.75;;;18.49;100.00
6128;BME280;7073;42.672;23.256;2022-09-03T03:21:08;94395.50;;;18.48;100.00
6128;BME280;7073;42.672;23.256;2022-09-03T03:23:36;94392.09;;;18.67;100.00
6128;BME280;7073;42.672;23.256;2022-09-03T03:26:06;94384.66;;;18.44;100.00
6128;BME280;7073;42.672;23.256;2022-09-03T03:28:34;94398.13;;;18.32;100.00
6128;BME280;7073;42.672;23.256;2022-09-03T03:31:05;94396.50;;;18.21;100.00
6128;BME280;7073;42.672;23.256;2022-09-03T03:33:31;94407.06;;;18.37;100.00
6128;BME280;7073;42.672;23.256;2022-09-03T03:36:03;94394.97;;;18.36;100.00
6128;BME280;7073;42.672;23.256;2022-09-03T03:38:30;94398.16;;;18.53;100.00
6128;BME280;7073;42.672;23.256;2022-09-03T03:40:57;94392.31;;;18.30;100.00
6128;BME280;7073;42.672;23.256;2022-09-03T03:43:25;94399.63;;;17.98;100.00
6128;BME280;7073;42.672;23.256;2022-09-03T03:45:56;94401.75;;;18.06;100.00
6128;BME280;7073;42.672;23.256;2022-09-03T03:48:23;94394.41;;;18.28;100.00
6128;BME280;7073;42.672;23.256;2022-09-03T03:50:50;94404.13;;;18.13;100.00
6128;BME280;7073;42.672;23.256;2022-09-03T03:53:17;94398.59;;;18.09;100.00
6128;BME280;7073;42.672;23.256;2022-09-03T03:55:53;94407.06;;;18.26;100.00
6128;BME280;7073;42.672;23.256;2022-09-03T03:58:20;94407.56;;;18.23;100.00
6128;BME280;7073;42.672;23.256;2022-09-03T04:00:49;94407.84;;;18.12;100.00
6128;BME280;7073;42.672;23.256;2022-09-03T04:03:16;94413.88;;;18.07;100.00
6128;BME280;7073;42.672;23.256;2022-09-03T04:05:43;94409.44;;;18.28;100.00
6128;BME280;7073;42.672;23.256;2022-09-03T04:08:09;94404.44;;;18.31;100.00
6128;BME280;7073;42.672;23.256;2022-09-03T04:10:37;94403.63;;;18.21;100.00
6128;BME280;7073;42.672;23.256;2022-09-03T04:13:04;94393.59;;;18.18;100.00
6128;BME280;7073;42.672;23.256;2022-09-03T04:15:31;94393.56;;;18.08;100.00
6128;BME280;7073;42.672;23.256;2022-09-03T04:17:59;94394.41;;;18.39;100.00
6128;BME280;7073;42.672;23.256;2022-09-03T04:20:26;94405.97;;;18.17;100.00
6128;BME280;7073;42.672;23.256;2022-09-03T04:22:53;94401.00;;;18.26;100.00
6128;BME280;7073;42.672;23.256;2022-09-03T04:25:20;94408.13;;;18.30;100.00
6128;BME280;7073;42.672;23.256;2022-09-03T04:27:46;94404.44;;;18.31;100.00
6128;BME280;7073;42.672;23.256;2022-09-03T04:30:14;94411.56;;;18.41;100.00
6128;BME280;7073;42.672;23.256;2022-09-03T04:32:40;94425.03;;;18.45;100.00
6128;BME280;7073;42.672;23.256;2022-09-03T04:35:23;94428.44;;;18.20;100.00
6128;BME280;7073;42.672;23.256;2022-09-03T04:37:50;94420.72;;;18.03;100.00
